Time;durP1;ratioP1;P1;durP2;ratioP2;P2;SDS_P1;SDS_P2;PMS_P1;PMS_P2;Temp;Humidity;BMP_temperature;BMP_pressure;BME280_temperature;BME280_humidity;BME280_pressure;Samples;Min_cycle;Max_cycle;Signal;HPM_P1;HPM_P2
2022/01/11 00:01:40;;;;;;;35.45;20.67;;;3.00;99.90;;;;;;5015543;28;20378;-77
2022/01/11 00:04:05;;;;;;;30.58;20.63;;;3.10;99.90;;;;;;5014666;28;20469;-78
2022/01/11 00:06:38;;;;;;;32.78;21.15;;;3.10;99.90;;;;;;5013249;28;20060;-76
2022/01/11 00:09:18;;;;;;;30.98;20.88;;;3.10;99.90;;;;;;5013093;28;20076;-76
2022/01/11 00:11:44;;;;;;;34.80;22.77;;;3.10;99.90;;;;;;5012450;28;20393;-77
2022/01/11 00:14:10;;;;;;;32.50;20.42;;;3.10;99.90;;;;;;5014116;28;20089;-78
2022/01/11 00:16:36;;;;;;;32.25;21.58;;;3.10;99.90;;;;;;5014146;28;20030;-76
2022/01/11 00:19:05;;;;;;;32.45;21.55;;;3.10;99.90;;;;;;5013844;28;20105;-78
2022/01/11 00:21:32;;;;;;;34.13;21.40;;;3.00;99.90;;;;;;5014677;28;20088;-77
2022/01/11 00:26:42;;;;;;;35.72;20.88;;;3.10;99.90;;;;;;5014188;28;20025;-76
2022/01/11 00:29:07;;;;;;;31.48;22.23;;;3.10;99.90;;;;;;5015752;28;20018;-78
2022/01/11 00:31:33;;;;;;;37.05;22.45;;;3.10;99.90;;;;;;5012425;28;20057;-77
2022/01/11 00:34:00;;;;;;;31.75;19.50;;;3.10;99.90;;;;;;5015017;28;20026;-78
2022/01/11 00:36:39;;;;;;;35.05;20.60;;;3.10;99.90;;;;;;5020675;28;20071;-78
2022/01/11 00:39:05;;;;;;;32.35;21.65;;;3.10;99.90;;;;;;5018592;28;20026;-78
2022/01/11 00:41:31;;;;;;;34.97;20.63;;;3.30;99.90;;;;;;5018342;28;20083;-77
2022/01/11 00:43:56;;;;;;;31.95;19.73;;;3.20;99.90;;;;;;5019941;28;20109;-77
2022/01/11 00:46:22;;;;;;;32.63;21.27;;;3.30;99.90;;;;;;5016655;28;20026;-77
2022/01/11 00:48:47;;;;;;;29.90;19.35;;;3.30;99.90;;;;;;5031406;28;20045;-77
2022/01/11 00:51:13;;;;;;;37.05;21.23;;;3.30;99.90;;;;;;5018332;28;20076;-77
2022/01/11 00:53:42;;;;;;;30.30;19.83;;;3.50;99.90;;;;;;5019421;28;20022;-77
2022/01/11 00:56:08;;;;;;;31.02;19.70;;;3.40;99.90;;;;;;5018016;28;20056;-78
2022/01/11 00:58:34;;;;;;;36.47;20.63;;;3.40;99.90;;;;;;5037969;28;20026;-77
2022/01/11 01:01:01;;;;;;;27.48;18.85;;;3.50;99.90;;;;;;5024335;28;20030;-78
2022/01/11 01:03:26;;;;;;;30.60;20.75;;;3.40;99.90;;;;;;5038580;28;20017;-77
2022/01/11 01:05:53;;;;;;;40.63;23.42;;;3.40;99.90;;;;;;5031214;28;20140;-76
2022/01/11 01:08:19;;;;;;;37.10;21.75;;;3.50;99.90;;;;;;5032685;28;20069;-78
2022/01/11 01:10:47;;;;;;;28.98;21.00;;;3.40;99.90;;;;;;5027787;28;20026;-76
2022/01/11 01:13:19;;;;;;;40.50;22.23;;;3.30;99.90;;;;;;5026802;28;20094;-77
2022/01/11 01:15:50;;;;;;;33.35;20.65;;;3.30;99.90;;;;;;5033557;28;20030;-77
2022/01/11 01:18:22;;;;;;;34.42;22.13;;;3.20;99.90;;;;;;5034513;28;20018;-77
2022/01/11 01:20:52;;;;;;;38.45;22.45;;;3.20;99.90;;;;;;5022107;28;20026;-77
2022/01/11 01:23:18;;;;;;;32.55;22.25;;;3.00;99.90;;;;;;5016938;28;20030;-77
2022/01/11 01:25:45;;;;;;;35.42;22.30;;;3.00;99.90;;;;;;5023361;28;20060;-76
2022/01/11 01:28:12;;;;;;;37.90;22.83;;;3.10;99.90;;;;;;5022925;28;20022;-77
2022/01/11 01:30:39;;;;;;;34.33;22.33;;;3.00;99.90;;;;;;5015838;28;20096;-76
2022/01/11 01:33:05;;;;;;;42.78;22.75;;;3.00;99.90;;;;;;5017082;28;20026;-77
2022/01/11 01:35:38;;;;;;;35.95;23.23;;;3.10;99.90;;;;;;5015716;28;20425;-77
2022/01/11 01:38:04;;;;;;;35.92;23.52;;;2.90;99.90;;;;;;5015278;28;20029;-76
2022/01/11 01:40:36;;;;;;;42.97;24.60;;;2.90;99.90;;;;;;5016924;28;20032;-76
2022/01/11 01:43:04;;;;;;;45.20;24.85;;;2.80;99.90;;;;;;5017254;28;20029;-76
2022/01/11 01:45:31;;;;;;;37.63;23.70;;;2.90;99.90;;;;;;5015538;28;20030;-76
2022/01/11 01:47:58;;;;;;;35.35;22.27;;;2.90;99.90;;;;;;5014984;28;20061;-76
2022/01/11 01:50:27;;;;;;;36.75;23.17;;;2.90;99.90;;;;;;5015903;28;20026;-77
2022/01/11 01:52:55;;;;;;;31.52;22.83;;;3.00;99.90;;;;;;5016096;28;20030;-76
2022/01/11 01:55:21;;;;;;;34.65;21.65;;;3.00;99.90;;;;;;5014789;28;20025;-76
2022/01/11 01:57:46;;;;;;;34.72;23.83;;;3.00;99.90;;;;;;5014890;28;20037;-76
2022/01/11 02:00:13;;;;;;;35.80;24.08;;;2.90;99.90;;;;;;5015051;28;20029;-77
2022/01/11 02:02:39;;;;;;;40.33;23.58;;;2.90;99.90;;;;;;5015890;28;20141;-76
2022/01/11 02:05:06;;;;;;;39.50;24.35;;;2.80;99.90;;;;;;5014721;28;20612;-77
2022/01/11 02:07:36;;;;;;;41.25;26.27;;;2.80;99.90;;;;;;5015897;28;20156;-77
2022/01/11 02:10:05;;;;;;;35.00;23.15;;;2.90;99.90;;;;;;5030773;28;20026;-76
2022/01/11 02:12:31;;;;;;;38.60;22.80;;;3.00;99.90;;;;;;5028886;28;20029;-76
2022/01/11 02:14:56;;;;;;;34.47;24.52;;;2.90;99.90;;;;;;5018217;28;20034;-77
2022/01/11 02:17:22;;;;;;;35.22;23.08;;;2.90;99.90;;;;;;5021120;28;20061;-77
2022/01/11 02:19:48;;;;;;;36.80;22.67;;;2.90;99.90;;;;;;5015681;28;20033;-77
2022/01/11 02:22:13;;;;;;;40.53;23.83;;;3.00;99.90;;;;;;5015491;28;20537;-77
2022/01/11 02:24:39;;;;;;;32.53;21.75;;;3.00;99.90;;;;;;5015053;28;20374;-77
2022/01/11 02:27:05;;;;;;;36.88;23.40;;;3.00;99.90;;;;;;5013550;28;20056;-77
2022/01/11 02:29:31;;;;;;;33.45;21.65;;;2.90;99.90;;;;;;5015087;28;20030;-77
2022/01/11 02:31:56;;;;;;;39.15;24.10;;;2.80;99.90;;;;;;5015124;28;20018;-76
2022/01/11 02:34:22;;;;;;;32.85;21.67;;;2.90;99.90;;;;;;5014989;28;20109;-76
2022/01/11 02:36:48;;;;;;;38.53;21.67;;;2.80;99.90;;;;;;5014573;28;20109;-76
2022/01/11 02:39:13;;;;;;;35.05;22.80;;;2.90;99.90;;;;;;5014641;28;20037;-77
2022/01/11 02:41:55;;;;;;;40.85;22.95;;;2.90;99.90;;;;;;5013702;28;20068;-77
2022/01/11 02:44:21;;;;;;;37.20;23.08;;;2.80;99.90;;;;;;5015251;28;20048;-77
2022/01/11 02:46:46;;;;;;;40.25;22.75;;;2.80;99.90;;;;;;5014785;28;20018;-78
2022/01/11 02:49:12;;;;;;;38.97;23.30;;;2.70;99.90;;;;;;5014611;28;20116;-77
2022/01/11 02:51:37;;;;;;;39.58;22.75;;;2.70;99.90;;;;;;5051600;23;20088;-73
2022/01/11 02:54:05;;;;;;;37.55;24.00;;;2.70;99.90;;;;;;5043187;28;20030;-73
2022/01/11 02:56:31;;;;;;;37.25;23.08;;;2.70;99.90;;;;;;5034593;28;20030;-74
2022/01/11 02:58:57;;;;;;;33.53;21.35;;;2.70;99.90;;;;;;5016418;28;20025;-73
2022/01/11 03:01:23;;;;;;;41.55;23.48;;;2.70;99.90;;;;;;5034516;28;20122;-73
2022/01/11 03:03:49;;;;;;;35.63;22.33;;;2.70;99.90;;;;;;5033522;28;20179;-74
2022/01/11 03:06:15;;;;;;;40.10;24.52;;;2.70;99.90;;;;;;5032466;28;20053;-73
2022/01/11 03:08:43;;;;;;;39.55;23.83;;;2.70;99.90;;;;;;5034889;28;20024;-73
2022/01/11 03:11:10;;;;;;;32.10;22.20;;;2.70;99.90;;;;;;5043425;28;20068;-72
2022/01/11 03:13:38;;;;;;;37.67;23.48;;;2.70;99.90;;;;;;5035694;28;20025;-72
2022/01/11 03:16:04;;;;;;;35.03;23.05;;;2.70;99.90;;;;;;5034373;28;20021;-73
2022/01/11 03:18:30;;;;;;;37.33;22.23;;;2.80;99.90;;;;;;5034831;28;20477;-73
2022/01/11 03:20:56;;;;;;;35.60;22.92;;;2.80;99.90;;;;;;5034228;28;20443;-74
2022/01/11 03:23:23;;;;;;;31.60;21.42;;;2.80;99.90;;;;;;5053619;28;20009;-73
2022/01/11 03:25:51;;;;;;;36.45;23.92;;;2.80;99.90;;;;;;5056088;28;20033;-75
2022/01/11 03:28:16;;;;;;;34.55;22.70;;;2.80;99.90;;;;;;5054882;28;20021;-74
2022/01/11 03:30:42;;;;;;;41.13;24.95;;;2.80;99.90;;;;;;5054640;28;20041;-73
2022/01/11 03:33:08;;;;;;;35.10;21.83;;;2.80;99.90;;;;;;5047674;28;20108;-74
2022/01/11 03:35:38;;;;;;;35.90;20.90;;;2.80;99.90;;;;;;5035072;28;20026;-74
2022/01/11 03:38:05;;;;;;;40.67;21.27;;;2.90;99.90;;;;;;5034769;28;20083;-74
2022/01/11 03:40:32;;;;;;;37.90;23.30;;;2.90;99.90;;;;;;5034429;28;20033;-74
2022/01/11 03:42:57;;;;;;;32.70;23.75;;;2.90;99.90;;;;;;5034484;28;20044;-73
2022/01/11 03:45:24;;;;;;;29.63;21.02;;;2.80;99.90;;;;;;5035890;28;20017;-73
2022/01/11 03:47:51;;;;;;;32.25;21.10;;;2.90;99.90;;;;;;5036698;28;20037;-73
2022/01/11 03:50:18;;;;;;;34.03;20.67;;;3.00;99.90;;;;;;5034692;28;20289;-73
2022/01/11 03:52:44;;;;;;;31.85;21.20;;;3.10;99.90;;;;;;5032430;28;20028;-73
2022/01/11 03:55:15;;;;;;;31.33;21.88;;;3.10;99.90;;;;;;5033286;28;20068;-73
2022/01/11 03:57:41;;;;;;;38.10;24.23;;;2.90;99.90;;;;;;5032062;28;20033;-74
2022/01/11 04:00:13;;;;;;;35.53;22.95;;;2.90;99.90;;;;;;5034299;28;20403;-74
2022/01/11 04:02:39;;;;;;;32.05;22.73;;;2.80;99.90;;;;;;5033253;28;20017;-74
2022/01/11 04:05:06;;;;;;;35.58;22.85;;;2.80;99.90;;;;;;5035853;28;20021;-74
2022/01/11 04:07:31;;;;;;;33.90;23.30;;;2.80;99.90;;;;;;5033729;28;20021;-73
2022/01/11 04:09:57;;;;;;;37.67;22.77;;;2.80;99.90;;;;;;5033692;28;20040;-73
2022/01/11 04:12:24;;;;;;;38.00;24.02;;;2.70;99.90;;;;;;5035502;28;20022;-73
2022/01/11 04:14:50;;;;;;;32.47;22.33;;;2.70;99.90;;;;;;5037378;28;20020;-73
2022/01/11 04:17:16;;;;;;;35.40;22.38;;;2.70;99.90;;;;;;5040416;28;20029;-73
2022/01/11 04:19:42;;;;;;;34.65;20.70;;;2.80;99.90;;;;;;5038864;28;20025;-74
2022/01/11 04:22:08;;;;;;;30.13;19.98;;;2.90;99.90;;;;;;5033113;28;20029;-73
2022/01/11 04:24:34;;;;;;;29.67;18.20;;;2.90;99.90;;;;;;5033017;28;20025;-73
2022/01/11 04:26:59;;;;;;;27.73;19.63;;;2.80;99.90;;;;;;5031633;28;20025;-73
2022/01/11 04:29:25;;;;;;;27.98;18.13;;;2.90;99.90;;;;;;5032303;28;20104;-73
2022/01/11 04:31:51;;;;;;;26.73;17.83;;;3.00;99.90;;;;;;5031244;28;20026;-73
2022/01/11 04:34:16;;;;;;;27.75;18.65;;;3.10;99.90;;;;;;5032368;28;20021;-73
2022/01/11 04:36:42;;;;;;;26.73;17.38;;;3.10;99.90;;;;;;5032628;28;20070;-73
2022/01/11 04:39:11;;;;;;;28.67;18.13;;;3.20;99.90;;;;;;5032569;28;20308;-72
2022/01/11 04:41:38;;;;;;;27.23;18.90;;;3.20;99.90;;;;;;5030979;28;20037;-72
2022/01/11 04:44:04;;;;;;;24.65;18.15;;;3.20;99.90;;;;;;5032417;28;20029;-73
2022/01/11 04:46:30;;;;;;;24.77;18.17;;;3.20;99.90;;;;;;5032508;28;20067;-73
2022/01/11 04:48:56;;;;;;;25.90;19.23;;;3.30;99.90;;;;;;5033643;28;20018;-73
2022/01/11 04:51:24;;;;;;;32.00;19.00;;;3.30;99.90;;;;;;5034308;28;20033;-73
2022/01/11 04:53:50;;;;;;;27.17;18.45;;;3.30;99.90;;;;;;5035448;28;20029;-73
2022/01/11 04:56:16;;;;;;;27.15;18.98;;;3.30;99.90;;;;;;5031266;28;20029;-73
2022/01/11 04:58:43;;;;;;;29.30;19.23;;;3.20;99.90;;;;;;5032016;28;20025;-73
2022/01/11 05:01:09;;;;;;;36.47;19.90;;;3.10;99.90;;;;;;5039084;28;20053;-72
2022/01/11 05:03:35;;;;;;;32.40;18.92;;;3.00;99.90;;;;;;5049120;28;20259;-72
2022/01/11 05:06:04;;;;;;;32.65;19.95;;;3.00;99.90;;;;;;5033668;28;20043;-73
2022/01/11 05:08:30;;;;;;;34.20;21.70;;;3.00;99.90;;;;;;5032341;28;20492;-73
2022/01/11 05:10:56;;;;;;;27.23;16.67;;;2.90;99.90;;;;;;5032019;28;20030;-74
2022/01/11 05:13:21;;;;;;;27.00;17.45;;;3.20;99.90;;;;;;5040563;28;20033;-73
2022/01/11 05:15:47;;;;;;;26.42;19.05;;;3.40;99.90;;;;;;5047178;28;20033;-73
2022/01/11 05:18:13;;;;;;;31.35;18.52;;;3.40;99.90;;;;;;5041702;28;20029;-73
2022/01/11 05:20:40;;;;;;;26.67;17.60;;;3.40;99.90;;;;;;5040960;28;20036;-73
2022/01/11 05:23:07;;;;;;;29.20;18.58;;;3.40;99.90;;;;;;5033927;28;20029;-73
2022/01/11 05:25:33;;;;;;;29.13;18.90;;;3.30;99.90;;;;;;5031818;28;20025;-71
2022/01/11 05:27:59;;;;;;;28.23;19.90;;;3.30;99.90;;;;;;5033698;28;20025;-73
2022/01/11 05:30:26;;;;;;;33.38;19.75;;;3.30;99.90;;;;;;5035510;28;20028;-73
2022/01/11 05:32:51;;;;;;;32.42;20.95;;;3.30;99.90;;;;;;5036183;28;20064;-73
2022/01/11 05:35:19;;;;;;;29.85;19.77;;;3.20;99.90;;;;;;5035304;28;20141;-73
2022/01/11 05:37:45;;;;;;;33.72;20.08;;;3.20;99.90;;;;;;5034133;28;20029;-73
2022/01/11 05:40:12;;;;;;;30.13;19.95;;;3.10;99.90;;;;;;5037949;28;20029;-73
2022/01/11 05:42:40;;;;;;;30.27;21.20;;;3.00;99.90;;;;;;5035195;28;20029;-75
2022/01/11 05:45:08;;;;;;;36.95;21.80;;;3.00;99.90;;;;;;5035333;28;20090;-73
2022/01/11 05:47:34;;;;;;;28.98;20.88;;;3.00;99.90;;;;;;5035533;28;20026;-74
2022/01/11 05:50:03;;;;;;;31.63;21.27;;;3.00;99.90;;;;;;5033759;28;20025;-73
2022/01/11 05:52:28;;;;;;;33.55;22.58;;;3.10;99.90;;;;;;5034202;28;20032;-74
2022/01/11 05:54:54;;;;;;;29.73;20.98;;;3.20;99.90;;;;;;5035798;28;20029;-73
2022/01/11 05:57:20;;;;;;;36.78;20.88;;;3.10;99.90;;;;;;5035841;28;20091;-73
2022/01/11 05:59:45;;;;;;;29.77;21.20;;;3.00;99.90;;;;;;5034678;28;20033;-72
2022/01/11 06:02:11;;;;;;;36.10;23.40;;;3.10;99.90;;;;;;5034637;28;20099;-73
2022/01/11 06:04:36;;;;;;;35.97;21.98;;;3.20;99.90;;;;;;5034821;28;20444;-74
2022/01/11 06:07:02;;;;;;;34.30;22.58;;;3.10;99.90;;;;;;5034889;28;20451;-75
2022/01/11 06:09:28;;;;;;;32.78;23.23;;;3.10;99.90;;;;;;5034710;28;20393;-73
2022/01/11 06:11:57;;;;;;;33.55;21.95;;;3.10;99.90;;;;;;5035033;28;20025;-75
2022/01/11 06:14:23;;;;;;;34.90;22.73;;;3.00;99.90;;;;;;5034834;28;20086;-73
2022/01/11 06:16:49;;;;;;;39.72;24.08;;;3.00;99.90;;;;;;5034894;28;20025;-73
2022/01/11 06:19:14;;;;;;;35.45;23.13;;;3.00;99.90;;;;;;5033410;28;20481;-74
2022/01/11 06:21:40;;;;;;;44.22;24.95;;;2.90;99.90;;;;;;5033039;28;20031;-73
2022/01/11 06:24:07;;;;;;;47.92;27.15;;;3.00;99.90;;;;;;5034781;28;20029;-73
2022/01/11 06:26:33;;;;;;;40.72;24.17;;;3.00;99.90;;;;;;5034798;28;20489;-73
2022/01/11 06:29:01;;;;;;;36.47;24.83;;;3.00;99.90;;;;;;5037485;28;20036;-74
2022/01/11 06:31:27;;;;;;;35.30;23.63;;;3.00;99.90;;;;;;5055144;28;20025;-73
2022/01/11 06:33:53;;;;;;;37.15;24.60;;;3.00;99.90;;;;;;5056860;28;20033;-73
2022/01/11 06:36:19;;;;;;;36.80;23.85;;;2.90;99.90;;;;;;5056187;28;20029;-73
2022/01/11 06:38:44;;;;;;;36.53;23.92;;;2.90;99.90;;;;;;5042223;28;20322;-73
2022/01/11 06:41:10;;;;;;;33.72;23.20;;;2.90;99.90;;;;;;5036136;28;20033;-73
2022/01/11 06:43:36;;;;;;;39.47;23.80;;;2.90;99.90;;;;;;5035496;28;20076;-72
2022/01/11 06:46:03;;;;;;;39.58;23.15;;;2.90;99.90;;;;;;5033086;28;20021;-73
2022/01/11 06:48:29;;;;;;;37.05;23.65;;;3.00;99.90;;;;;;5034492;28;20029;-74
2022/01/11 06:50:54;;;;;;;34.97;23.30;;;3.00;99.90;;;;;;5034020;28;20033;-73
2022/01/11 06:53:20;;;;;;;43.15;22.60;;;2.90;99.90;;;;;;5033790;28;20033;-74
2022/01/11 06:55:46;;;;;;;38.90;22.83;;;2.80;99.90;;;;;;5034181;28;20084;-73
2022/01/11 06:58:11;;;;;;;32.65;23.25;;;2.80;99.90;;;;;;5033963;28;20037;-73
2022/01/11 07:00:37;;;;;;;37.28;23.92;;;2.80;99.90;;;;;;5032303;28;20026;-74
2022/01/11 07:03:02;;;;;;;44.40;23.40;;;2.80;99.90;;;;;;5033557;28;20036;-73
2022/01/11 07:05:28;;;;;;;38.97;23.88;;;2.90;99.90;;;;;;5033594;28;20025;-73
2022/01/11 07:07:53;;;;;;;35.35;23.58;;;2.80;99.90;;;;;;5033769;28;20017;-74
2022/01/11 07:10:19;;;;;;;38.42;22.90;;;2.80;99.90;;;;;;5032375;28;20393;-74
2022/01/11 07:12:45;;;;;;;37.25;22.98;;;2.80;99.90;;;;;;5034730;28;20030;-73
2022/01/11 07:15:11;;;;;;;35.08;22.58;;;2.90;99.90;;;;;;5033857;28;20449;-73
2022/01/11 07:17:37;;;;;;;47.05;23.25;;;3.00;99.90;;;;;;5033751;28;20025;-73
2022/01/11 07:20:04;;;;;;;33.72;23.08;;;2.90;99.90;;;;;;5032214;28;20030;-73
2022/01/11 07:22:30;;;;;;;32.63;23.25;;;2.90;99.90;;;;;;5033577;28;20392;-74
2022/01/11 07:24:56;;;;;;;41.75;25.08;;;3.00;99.90;;;;;;5034002;28;20025;-74
2022/01/11 07:27:21;;;;;;;34.47;22.50;;;3.00;99.90;;;;;;5037252;28;20039;-73
2022/01/11 07:29:47;;;;;;;35.47;21.80;;;3.10;99.90;;;;;;5034989;28;20499;-74
2022/01/11 07:32:14;;;;;;;36.72;22.77;;;3.10;99.90;;;;;;5033446;28;20108;-74
2022/01/11 07:34:40;;;;;;;34.80;23.20;;;3.10;99.90;;;;;;5033447;28;20496;-74
2022/01/11 07:37:06;;;;;;;35.97;22.85;;;3.10;99.90;;;;;;5034427;28;20034;-73
2022/01/11 07:39:32;;;;;;;36.50;23.52;;;3.30;99.90;;;;;;5033822;28;20086;-73
2022/01/11 07:41:57;;;;;;;37.40;22.83;;;3.40;99.90;;;;;;5034419;28;20022;-72
2022/01/11 07:44:24;;;;;;;34.50;22.35;;;3.40;99.90;;;;;;5032287;28;20030;-72
2022/01/11 07:46:49;;;;;;;40.25;24.60;;;3.40;99.90;;;;;;5032641;28;20112;-73
2022/01/11 07:49:15;;;;;;;32.10;21.02;;;3.30;99.90;;;;;;5032441;28;20134;-73
2022/01/11 07:51:40;;;;;;;34.63;23.20;;;3.40;99.90;;;;;;5031837;28;20116;-73
2022/01/11 07:54:06;;;;;;;35.17;20.08;;;3.40;99.90;;;;;;5036048;28;20029;-73
2022/01/11 07:56:32;;;;;;;30.90;21.23;;;3.50;99.90;;;;;;5040264;28;20029;-73
2022/01/11 07:58:58;;;;;;;30.85;21.52;;;3.50;99.90;;;;;;5040097;28;20033;-73
2022/01/11 08:01:23;;;;;;;35.83;23.10;;;3.40;99.90;;;;;;5035476;28;20036;-73
2022/01/11 08:03:49;;;;;;;29.75;21.20;;;3.30;99.90;;;;;;5033391;28;20085;-74
2022/01/11 08:06:14;;;;;;;33.83;22.38;;;3.40;99.90;;;;;;5032244;28;20029;-73
2022/01/11 08:08:41;;;;;;;28.15;20.50;;;3.60;99.90;;;;;;5033573;28;20022;-73
2022/01/11 08:11:07;;;;;;;38.25;21.77;;;3.70;99.90;;;;;;5032879;28;20109;-74
2022/01/11 08:13:33;;;;;;;36.78;20.05;;;3.70;99.90;;;;;;5037392;28;20033;-73
2022/01/11 08:15:58;;;;;;;35.08;21.50;;;3.80;99.90;;;;;;5038287;28;20030;-73
2022/01/11 08:18:24;;;;;;;28.50;20.83;;;3.90;99.90;;;;;;5039610;28;20029;-73
2022/01/11 08:20:50;;;;;;;35.50;20.20;;;3.80;99.90;;;;;;5035052;28;20033;-73
2022/01/11 08:23:16;;;;;;;31.33;19.23;;;3.90;99.90;;;;;;5037345;28;20052;-74
2022/01/11 08:25:42;;;;;;;29.73;19.38;;;3.80;99.90;;;;;;5042307;28;20017;-73
2022/01/11 08:28:09;;;;;;;25.73;19.58;;;3.70;99.90;;;;;;5044349;28;20611;-72
2022/01/11 08:30:35;;;;;;;29.98;20.80;;;3.70;99.90;;;;;;5040806;28;20104;-72
2022/01/11 08:33:04;;;;;;;34.25;21.75;;;3.80;99.90;;;;;;5032263;28;20037;-74
2022/01/11 08:35:30;;;;;;;32.05;20.88;;;3.80;99.90;;;;;;5031885;28;20033;-73
2022/01/11 08:37:57;;;;;;;27.92;19.13;;;3.80;99.90;;;;;;5033365;28;20036;-73
2022/01/11 08:40:23;;;;;;;28.65;19.15;;;3.90;99.90;;;;;;5045944;28;20026;-72
2022/01/11 08:42:49;;;;;;;27.10;19.27;;;4.00;99.90;;;;;;5046290;28;20083;-73
2022/01/11 08:45:14;;;;;;;29.65;20.55;;;4.10;99.90;;;;;;5034307;28;20057;-74
2022/01/11 08:47:40;;;;;;;29.20;20.00;;;4.00;99.90;;;;;;5033644;28;20495;-73
2022/01/11 08:50:08;;;;;;;34.22;19.83;;;4.00;99.90;;;;;;5055836;22;20033;-77
2022/01/11 08:52:34;;;;;;;28.80;19.83;;;4.00;99.90;;;;;;4993713;28;20042;-76
2022/01/11 08:55:00;;;;;;;25.55;19.90;;;4.10;99.90;;;;;;4994139;28;20035;-76
2022/01/11 08:57:25;;;;;;;25.90;18.70;;;4.20;99.90;;;;;;5008268;28;20076;-77
2022/01/11 08:59:51;;;;;;;26.08;17.90;;;4.20;99.90;;;;;;4993115;28;20106;-77
2022/01/11 09:02:20;;;;;;;27.60;17.95;;;4.20;99.90;;;;;;4994232;28;20026;-77
2022/01/11 09:04:46;;;;;;;31.92;20.00;;;4.20;99.90;;;;;;4997414;28;20097;-77
2022/01/11 09:07:11;;;;;;;25.20;18.90;;;4.30;99.90;;;;;;4997526;28;20471;-76
2022/01/11 09:09:38;;;;;;;25.73;19.17;;;4.30;99.90;;;;;;5003956;28;20030;-76
2022/01/11 09:12:06;;;;;;;26.77;17.85;;;4.40;99.90;;;;;;4997917;28;20540;-77
2022/01/11 09:14:33;;;;;;;31.48;17.73;;;4.40;99.90;;;;;;4998356;28;20027;-77
2022/01/11 09:17:02;;;;;;;25.50;18.70;;;4.50;99.90;;;;;;4997229;28;20045;-76
2022/01/11 09:19:29;;;;;;;30.80;18.92;;;4.60;99.90;;;;;;4997129;28;20037;-77
2022/01/11 09:21:54;;;;;;;29.13;20.70;;;4.70;99.90;;;;;;4996889;28;20022;-76
2022/01/11 09:24:20;;;;;;;33.05;20.08;;;4.60;99.90;;;;;;4997077;28;20037;-78
2022/01/11 09:26:47;;;;;;;28.40;19.67;;;4.60;99.90;;;;;;4997150;28;20033;-75
2022/01/11 09:29:14;;;;;;;32.05;20.02;;;4.60;99.90;;;;;;4995419;28;20029;-76
2022/01/11 09:31:40;;;;;;;25.85;19.50;;;4.60;99.90;;;;;;4996856;28;20036;-76
2022/01/11 09:34:06;;;;;;;25.25;19.85;;;4.70;99.90;;;;;;4996496;28;20081;-76
2022/01/11 09:36:32;;;;;;;27.58;18.38;;;4.60;99.90;;;;;;4996627;28;20030;-77
2022/01/11 09:38:58;;;;;;;26.35;18.38;;;4.60;99.90;;;;;;4996441;28;20057;-76
2022/01/11 09:41:24;;;;;;;26.15;18.05;;;4.60;99.90;;;;;;4996384;28;20457;-77
2022/01/11 09:43:49;;;;;;;25.13;17.90;;;4.60;99.90;;;;;;4996425;28;20133;-76
2022/01/11 09:46:15;;;;;;;28.25;19.20;;;4.70;99.90;;;;;;4998686;28;20026;-76
2022/01/11 09:48:43;;;;;;;26.23;18.50;;;4.60;99.90;;;;;;4997259;28;20023;-76
2022/01/11 09:51:08;;;;;;;27.50;18.90;;;4.70;99.90;;;;;;4999749;28;20391;-78
2022/01/11 09:53:34;;;;;;;26.20;19.08;;;4.70;99.90;;;;;;4997145;28;20022;-77
2022/01/11 09:56:06;;;;;;;29.48;18.80;;;4.70;99.90;;;;;;4997001;28;20030;-77
2022/01/11 09:58:35;;;;;;;24.42;18.60;;;4.60;99.90;;;;;;5001822;28;20026;-76
2022/01/11 10:01:03;;;;;;;23.83;18.73;;;4.60;99.90;;;;;;5000132;28;20034;-77
2022/01/11 10:03:29;;;;;;;25.15;17.75;;;4.70;99.90;;;;;;4999058;28;20029;-77
2022/01/11 10:05:55;;;;;;;31.77;20.55;;;4.70;99.90;;;;;;4999210;28;20050;-78
2022/01/11 10:08:22;;;;;;;29.17;20.00;;;4.70;99.90;;;;;;4999846;28;20102;-76
2022/01/11 10:10:48;;;;;;;29.13;18.13;;;4.70;99.90;;;;;;4996408;28;20204;-77
2022/01/11 10:13:32;;;;;;;31.23;19.63;;;4.70;99.90;;;;;;4997662;28;20030;-77
2022/01/11 10:16:27;;;;;;;34.83;20.73;;;4.70;99.90;;;;;;4997157;28;20037;-77
2022/01/11 10:18:54;;;;;;;22.05;17.27;;;4.90;99.90;;;;;;5000323;28;20088;-77
2022/01/11 10:21:37;;;;;;;25.75;17.88;;;4.80;99.90;;;;;;5000207;28;20345;-76
2022/01/11 10:24:21;;;;;;;23.90;16.63;;;4.80;99.90;;;;;;5000494;28;20030;-77
2022/01/11 10:26:47;;;;;;;25.67;17.98;;;4.70;99.90;;;;;;4998737;28;20029;-76
2022/01/11 10:29:27;;;;;;;32.55;17.42;;;4.80;99.90;;;;;;4998372;28;20018;-77
2022/01/11 10:31:55;;;;;;;20.73;17.08;;;5.00;99.90;;;;;;4995553;28;20026;-76
2022/01/11 10:34:29;;;;;;;25.02;19.80;;;5.10;99.90;;;;;;4995874;28;20398;-76
2022/01/11 10:36:56;;;;;;;26.77;16.73;;;5.40;99.90;;;;;;4996282;28;20122;-76
2022/01/11 10:39:40;;;;;;;25.52;18.85;;;5.30;99.90;;;;;;4994523;28;20454;-77
2022/01/11 10:42:21;;;;;;;29.02;19.83;;;5.20;99.90;;;;;;4996539;28;20076;-76
2022/01/11 10:44:55;;;;;;;31.95;18.88;;;5.20;99.90;;;;;;4998062;28;20062;-77
2022/01/11 10:47:24;;;;;;;29.70;18.23;;;4.90;99.90;;;;;;4997352;28;20113;-77
2022/01/11 10:49:59;;;;;;;25.45;17.20;;;4.90;99.90;;;;;;5001975;28;20026;-77
2022/01/11 10:52:28;;;;;;;25.02;16.55;;;5.20;99.90;;;;;;5003539;28;20034;-77
2022/01/11 10:54:54;;;;;;;22.10;17.95;;;5.40;99.90;;;;;;5002291;28;20022;-77
2022/01/11 10:57:27;;;;;;;22.83;16.25;;;5.10;99.90;;;;;;4998279;28;20026;-78
2022/01/11 11:00:14;;;;;;;25.45;17.05;;;5.20;99.90;;;;;;5001588;28;20076;-76
2022/01/11 11:02:41;;;;;;;23.13;16.42;;;5.60;99.90;;;;;;4998600;28;20125;-77
2022/01/11 11:05:20;;;;;;;26.85;15.90;;;5.80;99.90;;;;;;5013455;28;20090;-77
2022/01/11 11:08:21;;;;;;;25.02;17.73;;;5.40;99.90;;;;;;5017277;28;20046;-77
2022/01/11 11:10:55;;;;;;;24.52;17.08;;;5.50;99.90;;;;;;5019590;28;20030;-76
2022/01/11 11:13:26;;;;;;;22.52;15.82;;;5.90;99.90;;;;;;5010764;28;20316;-76
2022/01/11 11:15:54;;;;;;;23.23;16.65;;;6.20;99.90;;;;;;5003924;28;20715;-77
2022/01/11 11:18:31;;;;;;;19.75;14.75;;;6.30;99.90;;;;;;5009547;28;20017;-77
2022/01/11 11:21:35;;;;;;;26.00;16.58;;;6.10;99.90;;;;;;5004359;28;20085;-76
2022/01/11 11:24:05;;;;;;;21.77;16.17;;;6.20;99.90;;;;;;5010013;28;20026;-76
2022/01/11 11:26:37;;;;;;;22.55;16.67;;;5.90;99.90;;;;;;5005237;28;20105;-77
2022/01/11 11:29:04;;;;;;;28.23;17.17;;;6.10;99.90;;;;;;4997170;28;20027;-77
2022/01/11 11:31:30;;;;;;;22.38;16.48;;;6.20;99.90;;;;;;4997215;28;20478;-77
2022/01/11 11:33:56;;;;;;;22.23;15.90;;;6.10;99.90;;;;;;4996513;28;20030;-77
2022/01/11 11:36:22;;;;;;;23.08;15.60;;;6.00;99.90;;;;;;4996786;28;20037;-78
2022/01/11 11:39:18;;;;;;;22.30;16.55;;;6.20;99.90;;;;;;4996266;28;20042;-77
2022/01/11 11:41:46;;;;;;;20.50;15.02;;;6.50;99.90;;;;;;4995745;28;20046;-77
2022/01/11 11:44:24;;;;;;;24.45;16.92;;;6.60;99.90;;;;;;4997434;28;20045;-77
2022/01/11 11:47:02;;;;;;;25.42;17.42;;;6.70;99.90;;;;;;4996979;28;20026;-76
2022/01/11 11:49:43;;;;;;;15.65;13.02;;;6.20;99.90;;;;;;4996052;28;20553;-77
2022/01/11 11:52:26;;;;;;;19.92;13.63;;;6.30;99.90;;;;;;4994625;28;20089;-78
2022/01/11 11:55:23;;;;;;;11.82;10.43;;;6.60;99.90;;;;;;4995747;28;20030;-77
2022/01/11 11:58:08;;;;;;;17.17;10.95;;;6.70;99.90;;;;;;4995933;28;20490;-77
2022/01/11 12:00:41;;;;;;;14.00;10.90;;;6.70;99.90;;;;;;4993148;28;20029;-77
2022/01/11 12:03:25;;;;;;;9.93;8.45;;;6.80;99.90;;;;;;4995941;28;20070;-76
2022/01/11 12:05:53;;;;;;;15.05;9.10;;;6.90;99.90;;;;;;4998315;28;20022;-77
2022/01/11 12:08:34;;;;;;;12.40;8.93;;;6.80;99.90;;;;;;4998215;28;20069;-77
2022/01/11 12:11:11;;;;;;;12.05;7.97;;;6.90;99.90;;;;;;4995730;28;20024;-78
2022/01/11 12:13:45;;;;;;;14.23;8.90;;;6.90;99.90;;;;;;4994953;28;20558;-77
2022/01/11 12:16:26;;;;;;;13.48;9.05;;;6.90;99.90;;;;;;4995307;28;20088;-78
2022/01/11 12:18:54;;;;;;;;;;;7.00;99.90;;;;;;4995385;28;20030;-77
2022/01/11 12:21:21;;;;;;;7.78;5.82;;;6.90;99.90;;;;;;4994638;28;19912;-77
2022/01/11 12:23:49;;;;;;;8.32;6.35;;;7.00;99.90;;;;;;4994930;28;20054;-77
2022/01/11 12:26:20;;;;;;;10.70;5.22;;;6.70;99.90;;;;;;4994128;28;20026;-77
2022/01/11 12:29:08;;;;;;;9.15;5.15;;;6.90;99.90;;;;;;4992945;28;20030;-78
2022/01/11 12:31:40;;;;;;;7.05;5.20;;;7.00;99.90;;;;;;4996066;28;20029;-77
2022/01/11 12:34:09;;;;;;;5.53;4.40;;;6.80;99.90;;;;;;4997030;28;20098;-77
2022/01/11 12:36:53;;;;;;;8.68;4.75;;;6.70;99.90;;;;;;5006035;28;20397;-77
2022/01/11 12:39:24;;;;;;;4.45;3.30;;;6.80;99.90;;;;;;5014195;28;20030;-77
2022/01/11 12:41:51;;;;;;;;;;;6.70;99.90;;;;;;5010112;28;20022;-76
2022/01/11 12:44:27;;;;;;;4.60;2.35;;;6.60;99.90;;;;;;5014286;28;19910;-78
2022/01/11 12:46:58;;;;;;;6.55;3.38;;;6.40;99.90;;;;;;5013239;28;20034;-78